sensor_id;sensor_type;location;lat;lon;timestamp;pressure;altitude;pressure_sealevel;temperature;humidity
71903;BME280;59778;50.310;18.780;2023-07-13T00:12:25;98350.41;;;19.54;100.00
71903;BME280;59778;50.310;18.780;2023-07-13T00:27:47;98339.44;;;19.59;100.00
71903;BME280;59778;50.310;18.780;2023-07-13T00:43:15;98313.56;;;19.65;100.00
71903;BME280;59778;50.310;18.780;2023-07-13T00:58:37;98307.69;;;19.19;100.00
71903;BME280;59778;50.310;18.780;2023-07-13T01:13:59;98313.00;;;19.31;100.00
71903;BME280;59778;50.310;18.780;2023-07-13T01:29:22;98337.00;;;19.09;100.00
71903;BME280;59778;50.310;18.780;2023-07-13T01:44:43;98356.22;;;18.77;100.00
71903;BME280;59778;50.310;18.780;2023-07-13T02:00:08;98268.34;;;18.92;100.00
71903;BME280;59778;50.310;18.780;2023-07-13T02:15:30;98231.19;;;18.63;100.00
71903;BME280;59778;50.310;18.780;2023-07-13T02:30:51;98231.00;;;18.48;100.00
71903;BME280;59778;50.310;18.780;2023-07-13T02:46:13;98225.97;;;18.40;100.00
71903;BME280;59778;50.310;18.780;2023-07-13T03:01:35;98266.13;;;18.94;100.00
71903;BME280;59778;50.310;18.780;2023-07-13T03:16:56;98305.69;;;18.61;100.00
71903;BME280;59778;50.310;18.780;2023-07-13T03:32:17;98327.09;;;18.81;100.00
71903;BME280;59778;50.310;18.780;2023-07-13T03:47:39;98327.25;;;19.23;100.00
71903;BME280;59778;50.310;18.780;2023-07-13T04:03:00;98354.88;;;19.33;100.00
71903;BME280;59778;50.310;18.780;2023-07-13T04:18:21;98362.28;;;19.33;100.00
71903;BME280;59778;50.310;18.780;2023-07-13T04:33:43;98333.72;;;19.70;100.00
71903;BME280;59778;50.310;18.780;2023-07-13T04:49:05;98340.81;;;19.98;100.00
71903;BME280;59778;50.310;18.780;2023-07-13T05:04:27;98333.88;;;20.38;100.00
71903;BME280;59778;50.310;18.780;2023-07-13T05:19:48;98323.22;;;20.61;100.00
71903;BME280;59778;50.310;18.780;2023-07-13T05:35:09;98330.47;;;20.98;100.00
71903;BME280;59778;50.310;18.780;2023-07-13T05:50:31;98307.09;;;21.56;100.00
71903;BME280;59778;50.310;18.780;2023-07-13T06:05:52;98315.34;;;21.81;98.83
71903;BME280;59778;50.310;18.780;2023-07-13T06:21:19;98299.19;;;22.29;93.26
71903;BME280;59778;50.310;18.780;2023-07-13T06:36:40;98312.28;;;22.82;90.39
71903;BME280;59778;50.310;18.780;2023-07-13T06:52:02;98335.13;;;23.08;88.35
71903;BME280;59778;50.310;18.780;2023-07-13T07:07:24;98354.56;;;23.03;91.10
71903;BME280;59778;50.310;18.780;2023-07-13T07:22:46;98390.13;;;22.66;92.93
71903;BME280;59778;50.310;18.780;2023-07-13T07:38:07;98399.66;;;22.29;93.77
71903;BME280;59778;50.310;18.780;2023-07-13T07:53:30;98403.25;;;22.25;94.59
71903;BME280;59778;50.310;18.780;2023-07-13T08:08:51;98382.25;;;22.19;95.05
71903;BME280;59778;50.310;18.780;2023-07-13T08:24:12;98370.84;;;23.15;84.10
71903;BME280;59778;50.310;18.780;2023-07-13T08:39:33;98383.19;;;23.32;85.41
71903;BME280;59778;50.310;18.780;2023-07-13T08:54:55;98384.09;;;23.18;87.54
71903;BME280;59778;50.310;18.780;2023-07-13T09:10:47;98422.88;;;22.33;92.44
71903;BME280;59778;50.310;18.780;2023-07-13T09:26:15;98442.50;;;21.51;89.80
71903;BME280;59778;50.310;18.780;2023-07-13T09:42:07;98507.13;;;19.77;91.42
71903;BME280;59778;50.310;18.780;2023-07-13T09:57:33;98496.13;;;17.97;100.00
71903;BME280;59778;50.310;18.780;2023-07-13T10:12:54;98503.91;;;17.43;100.00
71903;BME280;59778;50.310;18.780;2023-07-13T10:43:52;98502.31;;;17.59;100.00
71903;BME280;59778;50.310;18.780;2023-07-13T10:59:25;98506.88;;;17.81;100.00
71903;BME280;59778;50.310;18.780;2023-07-13T11:45:50;98561.34;;;19.28;100.00
71903;BME280;59778;50.310;18.780;2023-07-13T12:01:20;98575.78;;;19.57;100.00
71903;BME280;59778;50.310;18.780;2023-07-13T12:16:42;98593.63;;;19.76;100.00
71903;BME280;59778;50.310;18.780;2023-07-13T12:32:08;98591.78;;;19.60;100.00
71903;BME280;59778;50.310;18.780;2023-07-13T12:47:30;98595.78;;;20.22;97.76
71903;BME280;59778;50.310;18.780;2023-07-13T13:03:05;98602.44;;;21.32;89.58
71903;BME280;59778;50.310;18.780;2023-07-13T13:18:29;98610.50;;;21.44;90.85
71903;BME280;59778;50.310;18.780;2023-07-13T13:33:50;98617.41;;;21.46;86.18
71903;BME280;59778;50.310;18.780;2023-07-13T13:49:16;98617.94;;;21.38;87.42
71903;BME280;59778;50.310;18.780;2023-07-13T14:04:38;98635.69;;;21.10;89.83
71903;BME280;59778;50.310;18.780;2023-07-13T14:19:59;98624.94;;;22.64;77.95
71903;BME280;59778;50.310;18.780;2023-07-13T14:35:22;98616.59;;;22.18;77.43
71903;BME280;59778;50.310;18.780;2023-07-13T14:50:44;98593.63;;;23.83;72.66
71903;BME280;59778;50.310;18.780;2023-07-13T15:06:10;98627.44;;;22.90;74.60
71903;BME280;59778;50.310;18.780;2023-07-13T15:21:32;98598.94;;;23.74;72.62
71903;BME280;59778;50.310;18.780;2023-07-13T15:36:57;98587.34;;;24.60;65.66
71903;BME280;59778;50.310;18.780;2023-07-13T15:52:23;98610.78;;;23.21;73.55
71903;BME280;59778;50.310;18.780;2023-07-13T16:07:47;98603.03;;;22.12;73.63
71903;BME280;59778;50.310;18.780;2023-07-13T16:23:11;98611.59;;;22.25;72.67
71903;BME280;59778;50.310;18.780;2023-07-13T16:38:34;98611.91;;;22.64;72.41
71903;BME280;59778;50.310;18.780;2023-07-13T16:53:56;98614.69;;;22.39;72.36
71903;BME280;59778;50.310;18.780;2023-07-13T17:09:17;98634.34;;;22.47;73.68
71903;BME280;59778;50.310;18.780;2023-07-13T17:24:38;98636.53;;;22.30;72.55
71903;BME280;59778;50.310;18.780;2023-07-13T17:39:59;98654.22;;;22.29;71.11
71903;BME280;59778;50.310;18.780;2023-07-13T17:55:21;98657.50;;;22.06;73.79
71903;BME280;59778;50.310;18.780;2023-07-13T18:10:42;98665.97;;;21.84;75.99
71903;BME280;59778;50.310;18.780;2023-07-13T18:26:09;98678.22;;;21.46;81.73
71903;BME280;59778;50.310;18.780;2023-07-13T18:41:30;98676.84;;;20.75;88.17
71903;BME280;59778;50.310;18.780;2023-07-13T18:56:52;98700.09;;;19.60;93.19
71903;BME280;59778;50.310;18.780;2023-07-13T19:12:22;98688.53;;;19.25;95.32
71903;BME280;59778;50.310;18.780;2023-07-13T19:27:47;98709.25;;;19.11;95.74
71903;BME280;59778;50.310;18.780;2023-07-13T19:43:12;98713.03;;;18.71;98.92
71903;BME280;59778;50.310;18.780;2023-07-13T19:58:33;98721.28;;;18.43;99.83
71903;BME280;59778;50.310;18.780;2023-07-13T20:13:55;98730.84;;;18.52;100.00
71903;BME280;59778;50.310;18.780;2023-07-13T20:29:16;98742.00;;;18.34;100.00
71903;BME280;59778;50.310;18.780;2023-07-13T20:44:38;98761.13;;;18.01;100.00
71903;BME280;59778;50.310;18.780;2023-07-13T20:59:59;98764.38;;;17.86;100.00
71903;BME280;59778;50.310;18.780;2023-07-13T21:15:26;98763.56;;;17.62;100.00
71903;BME280;59778;50.310;18.780;2023-07-13T21:30:48;98775.88;;;17.36;100.00
71903;BME280;59778;50.310;18.780;2023-07-13T21:46:11;98768.81;;;17.06;100.00
71903;BME280;59778;50.310;18.780;2023-07-13T22:01:33;98767.13;;;17.05;100.00
71903;BME280;59778;50.310;18.780;2023-07-13T22:16:54;98772.03;;;17.03;100.00
71903;BME280;59778;50.310;18.780;2023-07-13T22:32:16;98769.03;;;17.04;100.00
71903;BME280;59778;50.310;18.780;2023-07-13T22:47:39;98771.63;;;16.87;100.00
71903;BME280;59778;50.310;18.780;2023-07-13T23:03:01;98777.09;;;16.46;100.00
71903;BME280;59778;50.310;18.780;2023-07-13T23:18:22;98791.44;;;16.30;100.00
71903;BME280;59778;50.310;18.780;2023-07-13T23:33:44;98798.66;;;15.94;100.00
